createdAt,value
2022-08-12T00:00:08.660Z,22.70
2022-08-12T00:02:54.848Z,22.60
2022-08-12T00:06:00.359Z,22.60
2022-08-12T00:08:48.147Z,22.50
2022-08-12T00:11:34.868Z,22.50
2022-08-12T00:14:20.348Z,22.50
2022-08-12T00:17:07.954Z,22.40
2022-08-12T00:19:55.124Z,22.40
2022-08-12T00:22:41.183Z,22.40
2022-08-12T00:25:51.276Z,22.30
2022-08-12T00:28:34.488Z,22.30
2022-08-12T00:31:19.922Z,22.30
2022-08-12T00:34:05.671Z,22.20
2022-08-12T00:36:51.301Z,22.20
2022-08-12T00:39:37.399Z,22.10
2022-08-12T00:42:11.184Z,22.10
2022-08-12T00:44:42.603Z,22.00
2022-08-12T00:47:25.130Z,22.00
2022-08-12T00:49:55.131Z,21.90
2022-08-12T00:52:24.300Z,21.90
2022-08-12T00:54:54.550Z,21.90
2022-08-12T00:57:24.380Z,21.80
2022-08-12T00:59:55.716Z,21.70
2022-08-12T01:02:25.775Z,21.70
2022-08-12T01:05:14.053Z,21.70
2022-08-12T01:08:00.732Z,21.70
2022-08-12T01:10:48.463Z,21.60
2022-08-12T01:13:21.356Z,21.60
2022-08-12T01:15:52.420Z,21.60
2022-08-12T01:18:21.934Z,21.50
2022-08-12T01:21:00.973Z,21.50
2022-08-12T01:23:42.029Z,21.50
2022-08-12T01:26:16.573Z,21.40
2022-08-12T01:28:46.054Z,21.40
2022-08-12T01:31:16.520Z,21.30
2022-08-12T01:33:53.342Z,21.30
2022-08-12T01:36:26.320Z,21.30
2022-08-12T01:38:57.201Z,21.30
2022-08-12T01:41:29.638Z,21.20
2022-08-12T01:44:02.257Z,21.20
2022-08-12T01:46:45.238Z,21.20
2022-08-12T01:49:33.727Z,21.10
2022-08-12T01:52:21.473Z,21.10
2022-08-12T01:54:51.745Z,21.10
2022-08-12T01:57:58.794Z,21.10
2022-08-12T02:00:15.948Z,21.00
2022-08-12T02:02:51.298Z,21.00
2022-08-12T02:05:49.210Z,21.00
2022-08-12T02:08:46.104Z,21.00
2022-08-12T02:11:23.149Z,21.00
2022-08-12T02:14:07.454Z,20.90
2022-08-12T02:16:56.801Z,20.90
2022-08-12T02:19:49.512Z,20.90
2022-08-12T02:22:29.195Z,20.90
2022-08-12T02:25:04.314Z,20.80
2022-08-12T02:27:38.738Z,20.80
2022-08-12T02:30:11.768Z,20.80
2022-08-12T02:32:41.815Z,20.80
2022-08-12T02:35:14.914Z,20.70
2022-08-12T02:37:45.467Z,20.70
2022-08-12T02:40:15.614Z,20.70
2022-08-12T02:42:51.399Z,20.70
2022-08-12T02:45:28.305Z,20.70
2022-08-12T02:48:01.117Z,20.60
2022-08-12T02:50:32.487Z,20.60
2022-08-12T02:53:01.522Z,20.60
2022-08-12T02:55:35.263Z,20.60
2022-08-12T02:58:09.197Z,20.50
2022-08-12T03:00:42.777Z,20.50
2022-08-12T03:03:13.108Z,20.50
2022-08-12T03:05:47.029Z,20.50
2022-08-12T03:08:31.473Z,20.50
2022-08-12T03:11:04.652Z,20.40
2022-08-12T03:13:40.388Z,20.40
2022-08-12T03:16:10.805Z,20.40
2022-08-12T03:18:45.539Z,20.40
2022-08-12T03:21:17.533Z,20.40
2022-08-12T03:24:07.139Z,20.30
2022-08-12T03:26:37.421Z,20.30
2022-08-12T03:29:06.951Z,20.30
2022-08-12T03:31:36.618Z,20.30
2022-08-12T03:34:08.401Z,20.30
2022-08-12T03:36:40.336Z,20.20
2022-08-12T03:39:36.230Z,20.20
2022-08-12T03:42:28.278Z,20.20
2022-08-12T03:45:27.263Z,20.20
2022-08-12T03:48:19.082Z,20.20
2022-08-12T03:51:05.918Z,20.20
2022-08-12T03:53:51.982Z,20.10
2022-08-12T03:56:38.034Z,20.10
2022-08-12T03:59:25.469Z,20.10
2022-08-12T04:01:57.542Z,20.10
2022-08-12T04:04:28.539Z,20.10
2022-08-12T04:06:58.667Z,20.00
2022-08-12T04:09:27.350Z,20.00
2022-08-12T04:12:12.793Z,20.00
2022-08-12T04:14:41.353Z,20.00
2022-08-12T04:17:09.509Z,20.00
2022-08-12T04:19:39.200Z,20.00
2022-08-12T04:22:07.153Z,20.00
2022-08-12T04:24:36.755Z,19.90
2022-08-12T04:27:09.783Z,19.90
2022-08-12T04:30:32.063Z,19.90
2022-08-12T04:32:27.345Z,19.90
2022-08-12T04:34:56.663Z,19.90
2022-08-12T04:37:24.616Z,19.80
2022-08-12T04:39:54.012Z,19.80
2022-08-12T04:42:22.313Z,19.80
2022-08-12T04:44:50.351Z,19.80
2022-08-12T04:47:20.186Z,19.80
2022-08-12T04:49:49.212Z,19.80
2022-08-12T04:52:19.592Z,19.80
2022-08-12T04:54:48.889Z,19.80
2022-08-12T04:57:16.858Z,19.80
2022-08-12T04:59:48.288Z,19.70
2022-08-12T05:02:20.477Z,19.80
2022-08-12T05:04:51.462Z,19.70
2022-08-12T05:07:20.973Z,19.70
2022-08-12T05:09:55.355Z,19.70
2022-08-12T05:12:29.383Z,19.70
2022-08-12T05:14:58.850Z,19.70
2022-08-12T05:17:28.084Z,19.70
2022-08-12T05:19:57.427Z,19.70
2022-08-12T05:22:27.865Z,19.60
2022-08-12T05:24:56.106Z,19.70
2022-08-12T05:27:24.041Z,19.60
2022-08-12T05:30:07.164Z,19.70
2022-08-12T05:32:37.171Z,19.60
2022-08-12T05:35:08.119Z,19.60
2022-08-12T05:37:37.684Z,19.60
2022-08-12T05:40:10.980Z,19.60
2022-08-12T05:42:39.399Z,19.60
2022-08-12T05:45:08.508Z,19.60
2022-08-12T05:47:53.119Z,19.60
2022-08-12T05:50:22.042Z,19.60
2022-08-12T05:52:53.834Z,19.60
2022-08-12T05:55:24.189Z,19.60
2022-08-12T05:57:55.299Z,19.60
2022-08-12T06:00:25.641Z,19.60
2022-08-12T06:03:01.014Z,19.60
2022-08-12T06:05:29.462Z,19.60
2022-08-12T06:08:02.849Z,19.60
2022-08-12T06:10:33.039Z,19.70
2022-08-12T06:13:02.521Z,19.70
2022-08-12T06:15:31.351Z,19.80
2022-08-12T06:18:13.901Z,19.80
2022-08-12T06:20:44.759Z,19.90
2022-08-12T06:23:15.346Z,20.00
2022-08-12T06:25:43.629Z,20.00
2022-08-12T06:28:17.718Z,20.10
2022-08-12T06:31:25.355Z,20.20
2022-08-12T06:33:57.848Z,20.20
2022-08-12T06:36:33.698Z,20.40
2022-08-12T06:39:03.114Z,20.50
2022-08-12T06:42:02.610Z,20.50
2022-08-12T06:44:36.766Z,20.60
2022-08-12T06:47:04.890Z,20.60
2022-08-12T06:49:36.620Z,20.70
2022-08-12T06:52:04.924Z,20.80
2022-08-12T06:54:35.397Z,20.80
2022-08-12T06:57:57.881Z,21.00
2022-08-12T06:59:51.760Z,21.00
2022-08-12T07:02:21.029Z,21.10
2022-08-12T07:04:48.983Z,21.20
2022-08-12T07:07:18.649Z,21.30
2022-08-12T07:10:01.168Z,21.30
2022-08-12T07:12:36.881Z,21.40
2022-08-12T07:15:05.631Z,21.50
2022-08-12T07:17:37.810Z,21.60
2022-08-12T07:20:09.922Z,21.70
2022-08-12T07:22:39.868Z,21.80
2022-08-12T07:25:27.958Z,21.90
2022-08-12T07:27:56.921Z,21.90
2022-08-12T07:30:25.013Z,22.00
2022-08-12T07:32:52.970Z,22.10
2022-08-12T07:35:21.674Z,22.10
2022-08-12T07:37:50.656Z,22.20
2022-08-12T07:40:20.312Z,22.20
2022-08-12T07:42:48.395Z,22.30
2022-08-12T07:45:16.349Z,22.40
2022-08-12T07:47:44.806Z,22.40
2022-08-12T07:50:14.122Z,22.40
2022-08-12T07:52:48.405Z,22.50
2022-08-12T07:55:18.733Z,22.60
2022-08-12T07:57:57.823Z,22.70
2022-08-12T08:00:26.822Z,22.80
2022-08-12T08:02:55.048Z,22.90
2022-08-12T08:05:24.759Z,22.90
2022-08-12T08:07:53.469Z,23.00
2022-08-12T08:10:21.601Z,23.10
2022-08-12T08:12:58.043Z,23.10
2022-08-12T08:15:51.052Z,23.20
2022-08-12T08:18:25.687Z,23.40
2022-08-12T08:20:54.099Z,23.50
2022-08-12T08:23:22.043Z,23.50
2022-08-12T08:25:57.903Z,23.60
2022-08-12T08:28:27.304Z,23.70
2022-08-12T08:30:55.232Z,23.80
2022-08-12T08:34:08.935Z,23.90
2022-08-12T08:36:16.260Z,23.90
2022-08-12T08:38:57.621Z,24.10
2022-08-12T08:42:15.209Z,24.20
2022-08-12T08:44:33.336Z,24.30
2022-08-12T08:47:05.405Z,24.40
2022-08-12T08:49:37.020Z,24.50
2022-08-12T08:52:07.044Z,24.60
2022-08-12T08:54:37.518Z,24.70
2022-08-12T08:57:08.135Z,24.80
2022-08-12T08:59:37.626Z,24.80
2022-08-12T09:02:07.692Z,24.90
2022-08-12T09:05:12.324Z,25.10
2022-08-12T09:07:52.027Z,25.10
2022-08-12T09:13:29.226Z,25.30
2022-08-12T09:16:12.370Z,25.50
2022-08-12T09:18:41.276Z,25.60
2022-08-12T09:21:09.600Z,25.60
2022-08-12T09:23:58.642Z,25.80
2022-08-12T09:29:15.707Z,26.10
2022-08-12T09:32:03.282Z,26.20
2022-08-12T09:34:33.802Z,26.30
2022-08-12T09:37:20.063Z,26.30
2022-08-12T09:40:05.580Z,26.40
2022-08-12T09:43:15.582Z,26.50
2022-08-12T09:46:11.466Z,26.60
2022-08-12T09:48:40.219Z,26.80
2022-08-12T09:51:21.998Z,26.90
2022-08-12T09:54:08.412Z,27.10
2022-08-12T09:57:02.155Z,27.10
2022-08-12T10:00:12.782Z,27.30
2022-08-12T10:02:44.670Z,27.50
2022-08-12T10:05:13.574Z,27.60
2022-08-12T10:07:42.089Z,27.70
2022-08-12T10:10:23.979Z,27.80
2022-08-12T10:13:36.851Z,27.90
2022-08-12T10:16:08.220Z,28.00
2022-08-12T10:18:52.837Z,28.10
2022-08-12T10:21:24.088Z,28.20
2022-08-12T10:24:06.165Z,28.40
2022-08-12T10:26:53.379Z,28.50
2022-08-12T10:30:03.155Z,28.60
2022-08-12T10:32:43.697Z,28.70
2022-08-12T10:35:16.180Z,28.80
2022-08-12T10:38:37.335Z,28.90
2022-08-12T10:40:55.018Z,29.00
2022-08-12T10:43:55.218Z,29.20
2022-08-12T10:46:31.166Z,29.20
2022-08-12T10:49:06.943Z,29.30
2022-08-12T10:52:33.094Z,29.30
2022-08-12T10:54:42.498Z,29.50
2022-08-12T10:57:18.467Z,29.60
2022-08-12T11:00:31.981Z,29.70
2022-08-12T11:04:31.873Z,29.70
2022-08-12T11:07:03.170Z,29.80
2022-08-12T11:08:36.957Z,29.90
2022-08-12T11:11:27.740Z,30.10
2022-08-12T11:14:05.815Z,30.10
2022-08-12T11:16:33.902Z,30.30
2022-08-12T11:19:05.441Z,30.30
2022-08-12T11:21:57.988Z,30.40
2022-08-12T11:24:30.402Z,30.50
2022-08-12T11:27:08.023Z,30.50
2022-08-12T11:30:06.027Z,30.60
2022-08-12T11:32:27.049Z,30.70
2022-08-12T11:34:55.403Z,30.70
2022-08-12T11:37:27.509Z,30.90
2022-08-12T11:42:37.403Z,31.00
2022-08-12T11:45:17.017Z,31.10
2022-08-12T11:47:45.400Z,31.10
2022-08-12T11:50:19.131Z,31.20
2022-08-12T11:52:56.047Z,31.30
2022-08-12T11:55:27.474Z,31.40
2022-08-12T11:58:19.685Z,31.40
2022-08-12T12:03:45.674Z,31.60
2022-08-12T12:06:16.314Z,31.70
2022-08-12T12:08:51.082Z,31.80
2022-08-12T12:11:21.736Z,31.80
2022-08-12T12:14:08.346Z,31.90
2022-08-12T12:16:40.097Z,32.00
2022-08-12T12:19:17.707Z,32.00
2022-08-12T12:21:49.362Z,32.00
2022-08-12T12:24:22.188Z,32.00
2022-08-12T12:27:00.392Z,32.10
2022-08-12T12:30:18.484Z,32.10
2022-08-12T12:32:28.851Z,32.20
2022-08-12T12:35:17.828Z,32.20
2022-08-12T12:38:05.256Z,32.20
2022-08-12T12:40:41.709Z,32.30
2022-08-12T12:43:12.769Z,32.30
2022-08-12T12:45:46.423Z,32.30
2022-08-12T12:48:15.915Z,32.40
2022-08-12T12:50:51.236Z,32.40
2022-08-12T12:54:05.170Z,32.50
2022-08-12T12:56:15.594Z,32.50
2022-08-12T12:58:43.961Z,32.50
2022-08-12T13:01:26.855Z,32.50
2022-08-12T13:04:02.073Z,32.60
2022-08-12T13:06:32.058Z,32.70
2022-08-12T13:09:02.759Z,32.70
2022-08-12T13:11:41.195Z,32.70
2022-08-12T13:14:28.708Z,32.80
2022-08-12T13:17:02.688Z,32.80
2022-08-12T13:19:37.651Z,32.90
2022-08-12T13:22:20.029Z,32.90
2022-08-12T13:24:51.832Z,33.00
2022-08-12T13:27:22.901Z,33.00
2022-08-12T13:30:00.827Z,33.10
2022-08-12T13:32:33.091Z,33.20
2022-08-12T13:35:04.381Z,33.20
2022-08-12T13:37:54.830Z,33.20
2022-08-12T13:40:24.778Z,33.30
2022-08-12T13:42:57.960Z,33.30
2022-08-12T13:45:27.118Z,33.30
2022-08-12T13:48:01.857Z,33.40
2022-08-12T13:50:32.861Z,33.40
2022-08-12T13:53:23.115Z,33.50
2022-08-12T13:55:59.326Z,33.50
2022-08-12T13:58:34.697Z,33.70
2022-08-12T14:01:05.404Z,33.80
2022-08-12T14:03:51.379Z,33.90
2022-08-12T14:06:21.156Z,34.00
2022-08-12T14:08:50.570Z,34.00
2022-08-12T14:11:19.317Z,34.20
2022-08-12T14:14:04.803Z,34.20
2022-08-12T14:16:49.296Z,34.40
2022-08-12T14:19:23.109Z,34.40
2022-08-12T14:22:00.213Z,34.40
2022-08-12T14:24:40.505Z,34.60
2022-08-12T14:27:10.416Z,34.70
2022-08-12T14:30:05.201Z,34.70
2022-08-12T14:32:34.620Z,34.70
2022-08-12T14:35:09.442Z,34.80
2022-08-12T14:37:56.897Z,34.90
2022-08-12T14:40:28.658Z,35.00
2022-08-12T14:42:57.884Z,35.10
2022-08-12T14:45:44.355Z,35.10
2022-08-12T14:48:16.084Z,35.10
2022-08-12T14:51:09.544Z,35.30
2022-08-12T14:59:57.985Z,35.50
2022-08-12T15:02:20.522Z,35.50
2022-08-12T15:04:58.635Z,35.50
2022-08-12T15:07:33.765Z,35.60
2022-08-12T15:10:25.445Z,35.60
2022-08-12T15:13:07.420Z,35.70
2022-08-12T15:15:44.090Z,35.60
2022-08-12T15:18:15.563Z,35.60
2022-08-12T15:20:50.682Z,35.60
2022-08-12T15:23:21.406Z,35.60
2022-08-12T15:26:02.361Z,35.60
2022-08-12T15:28:32.756Z,35.80
2022-08-12T15:31:02.194Z,35.60
2022-08-12T15:33:44.918Z,35.70
2022-08-12T15:36:19.353Z,35.80
2022-08-12T15:38:54.421Z,35.80
2022-08-12T15:41:23.455Z,35.80
2022-08-12T15:44:37.276Z,35.80
2022-08-12T15:46:40.690Z,35.80
2022-08-12T15:49:16.649Z,35.80
2022-08-12T15:51:58.855Z,35.80
2022-08-12T15:54:42.270Z,35.80
2022-08-12T15:57:17.133Z,35.80
2022-08-12T16:00:00.777Z,35.90
2022-08-12T16:02:50.458Z,35.80
2022-08-12T16:06:15.625Z,35.80
2022-08-12T16:08:15.284Z,35.80
2022-08-12T16:10:46.749Z,35.60
2022-08-12T16:13:18.118Z,35.70
2022-08-12T16:16:02.620Z,35.60
2022-08-12T16:18:33.287Z,35.50
2022-08-12T16:21:01.990Z,35.50
2022-08-12T16:23:51.953Z,35.40
2022-08-12T16:26:27.289Z,35.40
2022-08-12T16:29:15.244Z,35.30
2022-08-12T16:31:44.631Z,35.20
2022-08-12T16:34:38.414Z,35.10
2022-08-12T16:37:08.674Z,35.00
2022-08-12T16:39:59.823Z,34.90
2022-08-12T16:42:28.416Z,34.80
2022-08-12T16:44:59.333Z,34.70
2022-08-12T16:47:27.810Z,34.70
2022-08-12T16:49:57.834Z,34.60
2022-08-12T16:52:26.031Z,34.40
2022-08-12T16:54:55.017Z,34.30
2022-08-12T16:57:32.441Z,34.30
2022-08-12T17:00:04.504Z,34.10
2022-08-12T17:02:35.355Z,34.00
2022-08-12T17:05:05.164Z,33.90
2022-08-12T17:07:38.061Z,33.80
2022-08-12T17:10:08.267Z,33.70
2022-08-12T17:12:39.153Z,33.60
2022-08-12T17:15:25.658Z,33.50
2022-08-12T17:18:39.055Z,33.40
2022-08-12T17:20:47.683Z,33.30
2022-08-12T17:23:17.434Z,33.20
2022-08-12T17:25:48.425Z,33.00
2022-08-12T17:28:18.934Z,33.00
2022-08-12T17:30:57.467Z,32.80
2022-08-12T17:33:33.592Z,32.70
2022-08-12T17:36:02.891Z,32.60
2022-08-12T17:38:30.841Z,32.60
2022-08-12T17:40:58.936Z,32.50
2022-08-12T17:43:56.441Z,32.30
2022-08-12T17:46:33.168Z,32.20
2022-08-12T17:49:06.606Z,32.10
2022-08-12T17:52:02.423Z,32.00
2022-08-12T17:54:32.708Z,31.90
2022-08-12T17:57:02.476Z,31.80
2022-08-12T17:59:48.938Z,31.70
2022-08-12T18:02:25.483Z,31.60
2022-08-12T18:05:10.220Z,31.50
2022-08-12T18:07:39.258Z,31.50
2022-08-12T18:10:08.510Z,31.30
2022-08-12T18:12:38.613Z,31.20
2022-08-12T18:15:26.331Z,31.10
2022-08-12T18:18:02.147Z,31.00
2022-08-12T18:20:35.249Z,30.90
2022-08-12T18:23:05.312Z,30.80
2022-08-12T18:26:16.138Z,30.70
2022-08-12T18:28:43.269Z,30.60
2022-08-12T18:31:15.385Z,30.50
2022-08-12T18:33:45.874Z,30.40
2022-08-12T18:36:22.444Z,30.30
2022-08-12T18:38:55.876Z,30.20
2022-08-12T18:41:33.576Z,30.20
2022-08-12T18:44:05.292Z,30.10
2022-08-12T18:46:47.292Z,30.00
2022-08-12T18:49:20.675Z,29.90
2022-08-12T18:52:02.537Z,29.80
2022-08-12T18:54:34.702Z,29.70
2022-08-12T18:57:07.100Z,29.60
2022-08-12T19:00:00.901Z,29.50
2022-08-12T19:02:36.148Z,29.40
2022-08-12T19:05:10.629Z,29.30
2022-08-12T19:07:49.587Z,29.20
2022-08-12T19:10:26.442Z,29.10
2022-08-12T19:13:21.093Z,29.00
2022-08-12T19:15:53.347Z,28.90
2022-08-12T19:18:30.033Z,28.90
2022-08-12T19:21:00.401Z,28.80
2022-08-12T19:23:35.953Z,28.70
2022-08-12T19:26:05.148Z,28.60
2022-08-12T19:28:36.453Z,28.60
2022-08-12T19:31:45.202Z,28.50
2022-08-12T19:37:26.712Z,28.40
2022-08-12T19:40:08.930Z,28.40
2022-08-12T19:43:00.864Z,28.40
2022-08-12T19:45:41.925Z,28.40
2022-08-12T19:48:17.024Z,28.30
2022-08-12T19:50:50.538Z,28.30
2022-08-12T19:53:23.005Z,28.20
2022-08-12T19:55:53.659Z,28.20
2022-08-12T19:58:23.234Z,28.10
2022-08-12T20:00:55.746Z,28.10
2022-08-12T20:03:38.052Z,28.10
2022-08-12T20:06:15.839Z,28.00
2022-08-12T20:08:48.642Z,27.90
2022-08-12T20:12:12.406Z,27.90
2022-08-12T20:14:06.514Z,27.80
2022-08-12T20:16:57.828Z,27.70
2022-08-12T20:19:52.222Z,27.70
2022-08-12T20:22:24.457Z,27.60
2022-08-12T20:25:01.407Z,27.60
2022-08-12T20:28:02.492Z,27.50
2022-08-12T20:30:37.557Z,27.40
2022-08-12T20:33:18.455Z,27.40
2022-08-12T20:36:14.131Z,27.30
2022-08-12T20:38:45.989Z,27.20
2022-08-12T20:41:16.726Z,27.10
2022-08-12T20:43:49.292Z,27.10
2022-08-12T20:46:17.893Z,27.00
2022-08-12T20:48:54.934Z,26.90
2022-08-12T20:51:27.741Z,26.80
2022-08-12T20:53:59.672Z,26.80
2022-08-12T20:56:32.897Z,26.70
2022-08-12T20:59:04.895Z,26.70
2022-08-12T21:01:46.060Z,26.60
2022-08-12T21:04:35.388Z,26.60
2022-08-12T21:07:09.176Z,26.50
2022-08-12T21:09:42.740Z,26.50
2022-08-12T21:12:27.415Z,26.40
2022-08-12T21:15:17.507Z,26.30
2022-08-12T21:18:00.954Z,26.30
2022-08-12T21:20:37.087Z,26.20
2022-08-12T21:23:06.458Z,26.20
2022-08-12T21:25:45.733Z,26.10
2022-08-12T21:28:15.020Z,26.00
2022-08-12T21:31:10.486Z,26.00
2022-08-12T21:33:58.378Z,25.90
2022-08-12T21:36:22.601Z,25.80
2022-08-12T21:38:53.774Z,25.80
2022-08-12T21:41:25.211Z,25.70
2022-08-12T21:44:01.611Z,25.70
2022-08-12T21:46:34.829Z,25.60
2022-08-12T21:49:05.426Z,25.60
2022-08-12T21:51:49.594Z,25.50
2022-08-12T21:54:21.923Z,25.50
2022-08-12T21:56:53.658Z,25.40
2022-08-12T21:59:22.897Z,25.40
2022-08-12T22:01:51.468Z,25.30
2022-08-12T22:04:37.110Z,25.30
2022-08-12T22:07:06.232Z,25.20
2022-08-12T22:09:42.896Z,25.20
2022-08-12T22:12:30.824Z,25.10
2022-08-12T22:14:58.889Z,25.10
2022-08-12T22:17:50.149Z,25.00
2022-08-12T22:20:21.721Z,25.00
2022-08-12T22:22:53.844Z,24.90
2022-08-12T22:25:28.597Z,24.90
2022-08-12T22:28:16.189Z,24.90
2022-08-12T22:30:58.044Z,24.80
2022-08-12T22:33:26.009Z,24.70
2022-08-12T22:35:59.691Z,24.70
2022-08-12T22:38:29.948Z,24.60
2022-08-12T22:41:00.761Z,24.60
2022-08-12T22:43:58.694Z,24.50
2022-08-12T22:46:52.477Z,24.50
2022-08-12T22:49:36.580Z,24.40
2022-08-12T22:52:12.261Z,24.40
2022-08-12T22:54:57.985Z,24.30
2022-08-12T22:57:53.949Z,24.20
2022-08-12T23:00:27.176Z,24.20
2022-08-12T23:02:59.335Z,24.10
2022-08-12T23:05:36.707Z,24.10
2022-08-12T23:08:22.205Z,24.00
2022-08-12T23:10:50.510Z,24.00
2022-08-12T23:13:44.093Z,23.90
2022-08-12T23:16:27.789Z,23.90
2022-08-12T23:19:01.403Z,23.80
2022-08-12T23:22:03.582Z,23.80
2022-08-12T23:24:26.509Z,23.70
2022-08-12T23:27:12.876Z,23.60
2022-08-12T23:29:43.181Z,23.60
2022-08-12T23:32:35.282Z,23.50
2022-08-12T23:35:03.855Z,23.50
2022-08-12T23:37:47.355Z,23.40
2022-08-12T23:40:21.989Z,23.30
2022-08-12T23:42:50.582Z,23.30
2022-08-12T23:45:20.185Z,23.30
2022-08-12T23:47:53.293Z,23.20
2022-08-12T23:50:23.889Z,23.20
2022-08-12T23:53:05.622Z,23.20
2022-08-12T23:55:35.896Z,23.10
2022-08-12T23:58:21.771Z,23.00
